Aviation Digital Data Service (ADDS)

Output produced by METARs form (1142 UTC 17 June 2019)
found at http://www.aviationweather.gov/metar/data/
 
ORMM 171100Z 32012KT CAVOK 47/00 Q1002 NOSIG
TAF ORMM 171000Z 1712/1812 32012KT CAVOK 
     TEMPO 1808/1812 G28 6000 NSC